sensor_id;sensor_type;location;lat;lon;timestamp;P1;durP1;ratioP1;P2;durP2;ratioP2
65715;SDS011;63484;52.054;8.518;2022-12-18T00:03:15;66.13;;;22.70;;
65715;SDS011;63484;52.054;8.518;2022-12-18T00:08:16;66.07;;;22.17;;
65715;SDS011;63484;52.054;8.518;2022-12-18T00:13:17;60.57;;;21.17;;
65715;SDS011;63484;52.054;8.518;2022-12-18T00:18:18;50.57;;;19.57;;
65715;SDS011;63484;52.054;8.518;2022-12-18T00:23:18;56.90;;;22.03;;
65715;SDS011;63484;52.054;8.518;2022-12-18T00:28:19;65.10;;;22.13;;
65715;SDS011;63484;52.054;8.518;2022-12-18T00:33:20;61.70;;;21.73;;
65715;SDS011;63484;52.054;8.518;2022-12-18T00:38:20;49.47;;;20.93;;
65715;SDS011;63484;52.054;8.518;2022-12-18T00:43:21;54.60;;;19.20;;
65715;SDS011;63484;52.054;8.518;2022-12-18T00:48:21;57.87;;;20.23;;
65715;SDS011;63484;52.054;8.518;2022-12-18T00:53:22;49.10;;;19.77;;
65715;SDS011;63484;52.054;8.518;2022-12-18T00:58:22;57.60;;;19.67;;
65715;SDS011;63484;52.054;8.518;2022-12-18T01:03:23;57.60;;;20.23;;
65715;SDS011;63484;52.054;8.518;2022-12-18T01:08:24;55.57;;;18.87;;
65715;SDS011;63484;52.054;8.518;2022-12-18T01:13:24;59.60;;;18.90;;
65715;SDS011;63484;52.054;8.518;2022-12-18T01:18:24;50.80;;;18.07;;
65715;SDS011;63484;52.054;8.518;2022-12-18T01:23:25;51.70;;;17.50;;
65715;SDS011;63484;52.054;8.518;2022-12-18T01:28:26;56.27;;;18.40;;
65715;SDS011;63484;52.054;8.518;2022-12-18T01:33:26;56.40;;;17.53;;
65715;SDS011;63484;52.054;8.518;2022-12-18T01:38:28;50.17;;;17.10;;
65715;SDS011;63484;52.054;8.518;2022-12-18T01:43:42;47.17;;;17.27;;
65715;SDS011;63484;52.054;8.518;2022-12-18T01:48:49;48.37;;;16.27;;
65715;SDS011;63484;52.054;8.518;2022-12-18T01:53:54;46.20;;;16.40;;
65715;SDS011;63484;52.054;8.518;2022-12-18T01:58:57;46.97;;;16.30;;
65715;SDS011;63484;52.054;8.518;2022-12-18T02:09:31;48.63;;;17.87;;
65715;SDS011;63484;52.054;8.518;2022-12-18T02:25:26;46.67;;;16.20;;
65715;SDS011;63484;52.054;8.518;2022-12-18T02:30:38;53.17;;;17.20;;
65715;SDS011;63484;52.054;8.518;2022-12-18T02:35:42;51.85;;;16.55;;
65715;SDS011;63484;52.054;8.518;2022-12-18T02:40:45;41.93;;;15.90;;
65715;SDS011;63484;52.054;8.518;2022-12-18T02:45:52;41.60;;;15.50;;
65715;SDS011;63484;52.054;8.518;2022-12-18T02:56:26;41.73;;;14.67;;
65715;SDS011;63484;52.054;8.518;2022-12-18T03:07:11;45.40;;;15.77;;
65715;SDS011;63484;52.054;8.518;2022-12-18T03:12:27;43.37;;;15.07;;
65715;SDS011;63484;52.054;8.518;2022-12-18T03:17:35;41.17;;;14.80;;
65715;SDS011;63484;52.054;8.518;2022-12-18T03:22:41;41.87;;;14.53;;
65715;SDS011;63484;52.054;8.518;2022-12-18T03:27:49;44.37;;;13.90;;
65715;SDS011;63484;52.054;8.518;2022-12-18T03:33:00;40.30;;;14.17;;
65715;SDS011;63484;52.054;8.518;2022-12-18T03:38:05;42.30;;;14.77;;
65715;SDS011;63484;52.054;8.518;2022-12-18T03:43:10;41.73;;;14.43;;
65715;SDS011;63484;52.054;8.518;2022-12-18T03:48:28;48.73;;;15.63;;
65715;SDS011;63484;52.054;8.518;2022-12-18T03:58:53;37.83;;;13.10;;
65715;SDS011;63484;52.054;8.518;2022-12-18T04:04:00;37.80;;;12.43;;
65715;SDS011;63484;52.054;8.518;2022-12-18T04:09:05;42.07;;;13.37;;
65715;SDS011;63484;52.054;8.518;2022-12-18T04:14:09;44.60;;;14.27;;
65715;SDS011;63484;52.054;8.518;2022-12-18T04:19:11;40.63;;;13.30;;
65715;SDS011;63484;52.054;8.518;2022-12-18T04:24:15;37.30;;;13.53;;
65715;SDS011;63484;52.054;8.518;2022-12-18T04:29:25;38.13;;;13.97;;
65715;SDS011;63484;52.054;8.518;2022-12-18T04:34:26;29.83;;;12.43;;
65715;SDS011;63484;52.054;8.518;2022-12-18T04:39:28;40.03;;;13.10;;
65715;SDS011;63484;52.054;8.518;2022-12-18T04:44:31;32.83;;;11.53;;
65715;SDS011;63484;52.054;8.518;2022-12-18T04:49:32;36.20;;;12.37;;
65715;SDS011;63484;52.054;8.518;2022-12-18T04:54:32;33.30;;;11.53;;
65715;SDS011;63484;52.054;8.518;2022-12-18T04:59:32;36.83;;;13.47;;
65715;SDS011;63484;52.054;8.518;2022-12-18T05:04:33;33.97;;;12.77;;
65715;SDS011;63484;52.054;8.518;2022-12-18T05:09:34;34.27;;;12.60;;
65715;SDS011;63484;52.054;8.518;2022-12-18T05:14:34;33.10;;;11.43;;
65715;SDS011;63484;52.054;8.518;2022-12-18T05:19:35;32.60;;;10.93;;
65715;SDS011;63484;52.054;8.518;2022-12-18T05:29:38;28.73;;;10.15;;
65715;SDS011;63484;52.054;8.518;2022-12-18T05:34:38;31.40;;;10.60;;
65715;SDS011;63484;52.054;8.518;2022-12-18T05:39:39;32.57;;;10.83;;
65715;SDS011;63484;52.054;8.518;2022-12-18T05:44:39;32.70;;;10.90;;
65715;SDS011;63484;52.054;8.518;2022-12-18T05:49:39;35.03;;;12.80;;
65715;SDS011;63484;52.054;8.518;2022-12-18T05:54:40;33.33;;;12.13;;
65715;SDS011;63484;52.054;8.518;2022-12-18T05:59:40;34.93;;;12.83;;
65715;SDS011;63484;52.054;8.518;2022-12-18T06:04:40;36.33;;;12.80;;
65715;SDS011;63484;52.054;8.518;2022-12-18T06:09:41;39.63;;;13.20;;
65715;SDS011;63484;52.054;8.518;2022-12-18T06:14:41;35.00;;;12.60;;
65715;SDS011;63484;52.054;8.518;2022-12-18T06:19:41;42.03;;;13.70;;
65715;SDS011;63484;52.054;8.518;2022-12-18T06:24:42;30.30;;;11.80;;
65715;SDS011;63484;52.054;8.518;2022-12-18T06:29:42;29.57;;;10.87;;
65715;SDS011;63484;52.054;8.518;2022-12-18T06:34:42;35.47;;;11.20;;
65715;SDS011;63484;52.054;8.518;2022-12-18T06:39:43;28.83;;;10.43;;
65715;SDS011;63484;52.054;8.518;2022-12-18T06:44:43;29.00;;;10.43;;
65715;SDS011;63484;52.054;8.518;2022-12-18T06:49:43;28.00;;;10.37;;
65715;SDS011;63484;52.054;8.518;2022-12-18T06:54:44;35.57;;;10.93;;
65715;SDS011;63484;52.054;8.518;2022-12-18T06:59:44;29.93;;;10.63;;
65715;SDS011;63484;52.054;8.518;2022-12-18T07:04:44;29.53;;;10.20;;
65715;SDS011;63484;52.054;8.518;2022-12-18T07:09:45;32.63;;;11.33;;
65715;SDS011;63484;52.054;8.518;2022-12-18T07:14:45;32.20;;;11.57;;
65715;SDS011;63484;52.054;8.518;2022-12-18T07:19:46;30.70;;;10.27;;
65715;SDS011;63484;52.054;8.518;2022-12-18T07:24:46;32.73;;;10.13;;
65715;SDS011;63484;52.054;8.518;2022-12-18T07:29:46;27.63;;;10.20;;
65715;SDS011;63484;52.054;8.518;2022-12-18T07:34:47;25.40;;;9.03;;
65715;SDS011;63484;52.054;8.518;2022-12-18T07:39:47;29.87;;;10.10;;
65715;SDS011;63484;52.054;8.518;2022-12-18T07:44:47;28.77;;;10.07;;
65715;SDS011;63484;52.054;8.518;2022-12-18T07:49:48;29.57;;;10.33;;
65715;SDS011;63484;52.054;8.518;2022-12-18T07:54:48;28.33;;;10.20;;
65715;SDS011;63484;52.054;8.518;2022-12-18T07:59:49;32.07;;;10.93;;
65715;SDS011;63484;52.054;8.518;2022-12-18T08:04:50;30.67;;;10.87;;
65715;SDS011;63484;52.054;8.518;2022-12-18T08:09:50;29.37;;;10.30;;
65715;SDS011;63484;52.054;8.518;2022-12-18T08:14:51;33.27;;;11.47;;
65715;SDS011;63484;52.054;8.518;2022-12-18T08:19:51;34.47;;;11.80;;
65715;SDS011;63484;52.054;8.518;2022-12-18T08:24:51;30.37;;;11.03;;
65715;SDS011;63484;52.054;8.518;2022-12-18T08:29:52;25.80;;;10.17;;
65715;SDS011;63484;52.054;8.518;2022-12-18T08:34:52;24.47;;;10.17;;
65715;SDS011;63484;52.054;8.518;2022-12-18T08:39:52;27.07;;;11.47;;
65715;SDS011;63484;52.054;8.518;2022-12-18T08:44:53;29.93;;;11.83;;
65715;SDS011;63484;52.054;8.518;2022-12-18T08:49:53;29.87;;;11.33;;
65715;SDS011;63484;52.054;8.518;2022-12-18T08:54:53;30.97;;;11.67;;
65715;SDS011;63484;52.054;8.518;2022-12-18T08:59:54;32.00;;;12.40;;
65715;SDS011;63484;52.054;8.518;2022-12-18T09:04:54;36.20;;;13.17;;
65715;SDS011;63484;52.054;8.518;2022-12-18T09:09:54;34.13;;;13.07;;
65715;SDS011;63484;52.054;8.518;2022-12-18T09:14:55;31.17;;;12.50;;
65715;SDS011;63484;52.054;8.518;2022-12-18T09:19:56;35.30;;;13.93;;
65715;SDS011;63484;52.054;8.518;2022-12-18T09:24:56;38.80;;;15.23;;
65715;SDS011;63484;52.054;8.518;2022-12-18T09:29:57;44.60;;;17.70;;
65715;SDS011;63484;52.054;8.518;2022-12-18T09:34:57;44.27;;;17.97;;
65715;SDS011;63484;52.054;8.518;2022-12-18T09:39:57;70.50;;;22.97;;
65715;SDS011;63484;52.054;8.518;2022-12-18T09:44:58;43.87;;;17.30;;
65715;SDS011;63484;52.054;8.518;2022-12-18T09:50:01;42.87;;;17.03;;
65715;SDS011;63484;52.054;8.518;2022-12-18T10:00:17;37.43;;;15.67;;
65715;SDS011;63484;52.054;8.518;2022-12-18T10:05:29;37.95;;;15.48;;
65715;SDS011;63484;52.054;8.518;2022-12-18T10:11:01;31.63;;;13.43;;
65715;SDS011;63484;52.054;8.518;2022-12-18T10:16:24;28.57;;;12.47;;
65715;SDS011;63484;52.054;8.518;2022-12-18T10:26:49;29.33;;;11.77;;
65715;SDS011;63484;52.054;8.518;2022-12-18T10:31:49;26.50;;;11.33;;
65715;SDS011;63484;52.054;8.518;2022-12-18T10:36:49;25.57;;;10.83;;
65715;SDS011;63484;52.054;8.518;2022-12-18T10:41:50;28.30;;;10.03;;
65715;SDS011;63484;52.054;8.518;2022-12-18T10:46:55;26.57;;;11.00;;
65715;SDS011;63484;52.054;8.518;2022-12-18T10:52:25;24.87;;;10.27;;
65715;SDS011;63484;52.054;8.518;2022-12-18T11:02:27;17.23;;;6.90;;
65715;SDS011;63484;52.054;8.518;2022-12-18T11:07:48;17.17;;;7.00;;
65715;SDS011;63484;52.054;8.518;2022-12-18T11:12:50;19.03;;;6.70;;
65715;SDS011;63484;52.054;8.518;2022-12-18T11:17:51;11.83;;;5.23;;
65715;SDS011;63484;52.054;8.518;2022-12-18T11:22:57;13.23;;;5.93;;
65715;SDS011;63484;52.054;8.518;2022-12-18T11:29:07;15.13;;;6.70;;
65715;SDS011;63484;52.054;8.518;2022-12-18T11:33:37;17.73;;;7.05;;
65715;SDS011;63484;52.054;8.518;2022-12-18T11:38:40;15.27;;;6.22;;
65715;SDS011;63484;52.054;8.518;2022-12-18T11:43:45;13.23;;;6.13;;
65715;SDS011;63484;52.054;8.518;2022-12-18T11:49:03;13.73;;;6.30;;
65715;SDS011;63484;52.054;8.518;2022-12-18T11:54:12;14.50;;;6.17;;
65715;SDS011;63484;52.054;8.518;2022-12-18T12:04:48;12.90;;;5.57;;
65715;SDS011;63484;52.054;8.518;2022-12-18T12:20:49;11.80;;;5.77;;
65715;SDS011;63484;52.054;8.518;2022-12-18T12:42:04;17.50;;;5.60;;
65715;SDS011;63484;52.054;8.518;2022-12-18T12:47:26;15.43;;;6.10;;
65715;SDS011;63484;52.054;8.518;2022-12-18T12:52:34;13.67;;;6.00;;
65715;SDS011;63484;52.054;8.518;2022-12-18T12:57:40;13.43;;;5.30;;
65715;SDS011;63484;52.054;8.518;2022-12-18T13:08:22;13.67;;;5.70;;
65715;SDS011;63484;52.054;8.518;2022-12-18T13:13:27;12.13;;;6.07;;
65715;SDS011;63484;52.054;8.518;2022-12-18T13:18:51;10.80;;;5.53;;
65715;SDS011;63484;52.054;8.518;2022-12-18T13:23:54;14.60;;;5.53;;
65715;SDS011;63484;52.054;8.518;2022-12-18T13:28:56;14.93;;;6.23;;
65715;SDS011;63484;52.054;8.518;2022-12-18T13:34:15;11.93;;;5.47;;
65715;SDS011;63484;52.054;8.518;2022-12-18T13:39:25;14.03;;;5.53;;
65715;SDS011;63484;52.054;8.518;2022-12-18T13:44:35;15.53;;;5.77;;
65715;SDS011;63484;52.054;8.518;2022-12-18T13:54:45;13.33;;;5.90;;
65715;SDS011;63484;52.054;8.518;2022-12-18T13:59:50;14.43;;;5.70;;
65715;SDS011;63484;52.054;8.518;2022-12-18T14:04:51;15.93;;;5.57;;
65715;SDS011;63484;52.054;8.518;2022-12-18T14:09:53;11.90;;;5.63;;
65715;SDS011;63484;52.054;8.518;2022-12-18T14:14:56;14.13;;;6.37;;
65715;SDS011;63484;52.054;8.518;2022-12-18T14:19:58;13.90;;;6.67;;
65715;SDS011;63484;52.054;8.518;2022-12-18T14:25:05;14.97;;;6.77;;
65715;SDS011;63484;52.054;8.518;2022-12-18T14:35:42;13.70;;;5.70;;
65715;SDS011;63484;52.054;8.518;2022-12-18T14:40:53;14.40;;;6.30;;
65715;SDS011;63484;52.054;8.518;2022-12-18T14:45:56;16.90;;;6.23;;
65715;SDS011;63484;52.054;8.518;2022-12-18T14:50:58;15.33;;;7.07;;
65715;SDS011;63484;52.054;8.518;2022-12-18T14:56:02;19.43;;;6.90;;
65715;SDS011;63484;52.054;8.518;2022-12-18T15:01:17;21.70;;;8.07;;
65715;SDS011;63484;52.054;8.518;2022-12-18T15:16:36;16.37;;;7.07;;
65715;SDS011;63484;52.054;8.518;2022-12-18T15:21:36;15.50;;;6.53;;
65715;SDS011;63484;52.054;8.518;2022-12-18T15:26:43;16.13;;;6.30;;
65715;SDS011;63484;52.054;8.518;2022-12-18T15:31:44;14.53;;;6.23;;
65715;SDS011;63484;52.054;8.518;2022-12-18T15:36:58;15.77;;;6.67;;
65715;SDS011;63484;52.054;8.518;2022-12-18T15:41:58;16.97;;;6.77;;
65715;SDS011;63484;52.054;8.518;2022-12-18T15:47:23;14.67;;;6.50;;
65715;SDS011;63484;52.054;8.518;2022-12-18T15:52:24;16.30;;;6.53;;
65715;SDS011;63484;52.054;8.518;2022-12-18T15:57:25;12.67;;;6.17;;
65715;SDS011;63484;52.054;8.518;2022-12-18T16:02:26;14.90;;;6.80;;
65715;SDS011;63484;52.054;8.518;2022-12-18T16:07:28;16.83;;;6.53;;
65715;SDS011;63484;52.054;8.518;2022-12-18T16:12:28;17.37;;;7.27;;
65715;SDS011;63484;52.054;8.518;2022-12-18T16:17:28;15.00;;;6.63;;
65715;SDS011;63484;52.054;8.518;2022-12-18T16:22:29;18.07;;;6.53;;
65715;SDS011;63484;52.054;8.518;2022-12-18T16:27:31;17.73;;;7.03;;
65715;SDS011;63484;52.054;8.518;2022-12-18T16:32:31;16.13;;;6.53;;
65715;SDS011;63484;52.054;8.518;2022-12-18T16:37:31;15.60;;;6.83;;
65715;SDS011;63484;52.054;8.518;2022-12-18T16:42:32;19.10;;;7.50;;
65715;SDS011;63484;52.054;8.518;2022-12-18T16:47:32;16.63;;;6.83;;
65715;SDS011;63484;52.054;8.518;2022-12-18T16:52:34;21.40;;;7.47;;
65715;SDS011;63484;52.054;8.518;2022-12-18T16:57:35;20.10;;;8.50;;
65715;SDS011;63484;52.054;8.518;2022-12-18T17:02:35;23.20;;;8.73;;
65715;SDS011;63484;52.054;8.518;2022-12-18T17:07:36;28.40;;;9.37;;
65715;SDS011;63484;52.054;8.518;2022-12-18T17:12:36;20.83;;;8.43;;
65715;SDS011;63484;52.054;8.518;2022-12-18T17:17:36;18.53;;;7.33;;
65715;SDS011;63484;52.054;8.518;2022-12-18T17:22:37;18.27;;;7.20;;
65715;SDS011;63484;52.054;8.518;2022-12-18T17:27:37;14.37;;;6.53;;
65715;SDS011;63484;52.054;8.518;2022-12-18T17:32:38;15.97;;;6.90;;
65715;SDS011;63484;52.054;8.518;2022-12-18T17:37:38;15.07;;;7.33;;
65715;SDS011;63484;52.054;8.518;2022-12-18T17:42:38;18.30;;;7.00;;
65715;SDS011;63484;52.054;8.518;2022-12-18T17:47:39;15.50;;;6.27;;
65715;SDS011;63484;52.054;8.518;2022-12-18T17:52:40;13.70;;;6.13;;
65715;SDS011;63484;52.054;8.518;2022-12-18T17:57:41;18.53;;;6.73;;
65715;SDS011;63484;52.054;8.518;2022-12-18T18:02:41;16.53;;;6.93;;
65715;SDS011;63484;52.054;8.518;2022-12-18T18:07:41;16.80;;;6.87;;
65715;SDS011;63484;52.054;8.518;2022-12-18T18:12:42;18.57;;;7.03;;
65715;SDS011;63484;52.054;8.518;2022-12-18T18:18:01;17.17;;;7.23;;
65715;SDS011;63484;52.054;8.518;2022-12-18T18:23:01;17.03;;;6.80;;
65715;SDS011;63484;52.054;8.518;2022-12-18T18:28:02;21.87;;;8.43;;
65715;SDS011;63484;52.054;8.518;2022-12-18T18:33:02;18.83;;;8.30;;
65715;SDS011;63484;52.054;8.518;2022-12-18T18:38:02;17.17;;;7.37;;
65715;SDS011;63484;52.054;8.518;2022-12-18T18:43:03;20.30;;;7.30;;
65715;SDS011;63484;52.054;8.518;2022-12-18T18:48:03;17.50;;;7.80;;
65715;SDS011;63484;52.054;8.518;2022-12-18T18:53:04;15.03;;;7.73;;
65715;SDS011;63484;52.054;8.518;2022-12-18T18:58:04;19.00;;;8.03;;
65715;SDS011;63484;52.054;8.518;2022-12-18T19:03:05;21.30;;;7.97;;
65715;SDS011;63484;52.054;8.518;2022-12-18T19:08:05;17.93;;;8.17;;
65715;SDS011;63484;52.054;8.518;2022-12-18T19:13:13;21.33;;;8.33;;
65715;SDS011;63484;52.054;8.518;2022-12-18T19:18:25;23.97;;;9.17;;
65715;SDS011;63484;52.054;8.518;2022-12-18T19:23:27;25.03;;;9.90;;
65715;SDS011;63484;52.054;8.518;2022-12-18T19:28:28;24.27;;;10.20;;
65715;SDS011;63484;52.054;8.518;2022-12-18T19:33:33;44.07;;;9.27;;
65715;SDS011;63484;52.054;8.518;2022-12-18T19:38:36;29.33;;;10.00;;
65715;SDS011;63484;52.054;8.518;2022-12-18T19:43:37;28.13;;;10.90;;
65715;SDS011;63484;52.054;8.518;2022-12-18T19:48:38;31.20;;;11.90;;
65715;SDS011;63484;52.054;8.518;2022-12-18T19:53:39;27.90;;;10.97;;
65715;SDS011;63484;52.054;8.518;2022-12-18T19:58:39;26.70;;;11.27;;
65715;SDS011;63484;52.054;8.518;2022-12-18T20:03:40;26.87;;;11.20;;
65715;SDS011;63484;52.054;8.518;2022-12-18T20:08:40;33.80;;;11.33;;
65715;SDS011;63484;52.054;8.518;2022-12-18T20:13:41;28.30;;;11.37;;
65715;SDS011;63484;52.054;8.518;2022-12-18T20:18:41;28.87;;;11.73;;
65715;SDS011;63484;52.054;8.518;2022-12-18T20:23:42;30.07;;;12.13;;
65715;SDS011;63484;52.054;8.518;2022-12-18T20:28:42;30.27;;;11.97;;
65715;SDS011;63484;52.054;8.518;2022-12-18T20:33:43;35.33;;;12.77;;
65715;SDS011;63484;52.054;8.518;2022-12-18T20:38:43;32.87;;;12.23;;
65715;SDS011;63484;52.054;8.518;2022-12-18T20:43:44;31.80;;;12.80;;
65715;SDS011;63484;52.054;8.518;2022-12-18T20:48:45;29.33;;;11.27;;
65715;SDS011;63484;52.054;8.518;2022-12-18T20:53:47;33.40;;;11.70;;
65715;SDS011;63484;52.054;8.518;2022-12-18T20:58:48;29.50;;;11.93;;
65715;SDS011;63484;52.054;8.518;2022-12-18T21:03:49;33.77;;;11.90;;
65715;SDS011;63484;52.054;8.518;2022-12-18T21:08:50;33.67;;;12.27;;
65715;SDS011;63484;52.054;8.518;2022-12-18T21:13:50;34.67;;;12.90;;
65715;SDS011;63484;52.054;8.518;2022-12-18T21:18:50;36.03;;;12.10;;
65715;SDS011;63484;52.054;8.518;2022-12-18T21:23:51;33.67;;;12.63;;
65715;SDS011;63484;52.054;8.518;2022-12-18T21:28:55;34.50;;;13.50;;
65715;SDS011;63484;52.054;8.518;2022-12-18T21:33:57;31.77;;;12.63;;
65715;SDS011;63484;52.054;8.518;2022-12-18T21:38:57;32.13;;;12.70;;
65715;SDS011;63484;52.054;8.518;2022-12-18T21:43:58;30.13;;;12.70;;
65715;SDS011;63484;52.054;8.518;2022-12-18T21:49:05;30.43;;;12.20;;
65715;SDS011;63484;52.054;8.518;2022-12-18T21:54:06;30.43;;;12.60;;
65715;SDS011;63484;52.054;8.518;2022-12-18T21:59:07;33.13;;;12.70;;
65715;SDS011;63484;52.054;8.518;2022-12-18T22:04:07;41.03;;;13.03;;
65715;SDS011;63484;52.054;8.518;2022-12-18T22:09:08;30.43;;;11.17;;
65715;SDS011;63484;52.054;8.518;2022-12-18T22:14:10;33.20;;;12.43;;
65715;SDS011;63484;52.054;8.518;2022-12-18T22:19:12;35.80;;;12.77;;
65715;SDS011;63484;52.054;8.518;2022-12-18T22:24:13;34.90;;;12.77;;
65715;SDS011;63484;52.054;8.518;2022-12-18T22:29:17;30.70;;;11.63;;
65715;SDS011;63484;52.054;8.518;2022-12-18T22:34:37;28.47;;;10.93;;
65715;SDS011;63484;52.054;8.518;2022-12-18T22:39:38;31.63;;;12.33;;
65715;SDS011;63484;52.054;8.518;2022-12-18T22:44:39;33.27;;;12.00;;
65715;SDS011;63484;52.054;8.518;2022-12-18T22:49:39;38.27;;;12.27;;
65715;SDS011;63484;52.054;8.518;2022-12-18T22:54:40;28.27;;;11.13;;
65715;SDS011;63484;52.054;8.518;2022-12-18T22:59:40;29.47;;;11.07;;
65715;SDS011;63484;52.054;8.518;2022-12-18T23:04:40;31.00;;;11.67;;
65715;SDS011;63484;52.054;8.518;2022-12-18T23:09:41;30.87;;;11.40;;
65715;SDS011;63484;52.054;8.518;2022-12-18T23:14:41;29.97;;;11.60;;
65715;SDS011;63484;52.054;8.518;2022-12-18T23:19:42;32.80;;;11.97;;
65715;SDS011;63484;52.054;8.518;2022-12-18T23:24:42;30.80;;;11.50;;
65715;SDS011;63484;52.054;8.518;2022-12-18T23:29:43;29.03;;;11.43;;
65715;SDS011;63484;52.054;8.518;2022-12-18T23:34:44;32.80;;;12.57;;
65715;SDS011;63484;52.054;8.518;2022-12-18T23:39:44;30.30;;;11.87;;
65715;SDS011;63484;52.054;8.518;2022-12-18T23:44:45;30.83;;;11.40;;
65715;SDS011;63484;52.054;8.518;2022-12-18T23:49:45;34.67;;;12.53;;
65715;SDS011;63484;52.054;8.518;2022-12-18T23:54:45;34.03;;;12.37;;
65715;SDS011;63484;52.054;8.518;2022-12-18T23:59:46;34.80;;;12.93;;
